createdAt,value
2023-11-07T00:01:28.817Z,98787.53
2023-11-07T00:03:55.895Z,98791.88
2023-11-07T00:06:22.822Z,98795.31
2023-11-07T00:08:49.737Z,98799.53
2023-11-07T00:11:16.280Z,98794.28
2023-11-07T00:13:44.080Z,98797.63
2023-11-07T00:16:14.538Z,98797.75
2023-11-07T00:18:41.897Z,98798.75
2023-11-07T00:21:08.950Z,98799.84
2023-11-07T00:23:35.849Z,98802.47
2023-11-07T00:26:03.430Z,98795.66
2023-11-07T00:28:30.118Z,98792.47
2023-11-07T00:30:56.682Z,98792.69
2023-11-07T00:33:23.309Z,98793.75
2023-11-07T00:35:50.018Z,98788.63
2023-11-07T00:38:16.566Z,98792.69
2023-11-07T00:40:43.116Z,98788.63
2023-11-07T00:43:09.845Z,98795.34
2023-11-07T00:45:36.406Z,98792.47
2023-11-07T00:48:03.324Z,98797.72
2023-11-07T00:50:30.042Z,98797.56
2023-11-07T00:52:56.642Z,98803.81
2023-11-07T00:55:23.645Z,98797.91
2023-11-07T00:57:50.367Z,98791.91
2023-11-07T01:00:17.239Z,98802.84
2023-11-07T01:02:45.859Z,98795.34
2023-11-07T01:05:13.033Z,98801.41
2023-11-07T01:07:40.742Z,98797.09
2023-11-07T01:10:08.968Z,98800.63
2023-11-07T01:12:35.566Z,98803.31
2023-11-07T01:15:06.516Z,98797.56
2023-11-07T01:17:33.422Z,98806.16
2023-11-07T01:20:00.141Z,98800.19
2023-11-07T01:22:29.720Z,98804.41
2023-11-07T01:24:56.360Z,98805.38
2023-11-07T01:27:22.990Z,98804.72
2023-11-07T01:29:49.782Z,98803.13
2023-11-07T01:32:16.392Z,98806.63
2023-11-07T01:34:43.273Z,98808.31
2023-11-07T01:37:09.815Z,98811.72
2023-11-07T01:39:39.614Z,98806.63
2023-11-07T01:42:08.273Z,98810.16
2023-11-07T01:44:34.943Z,98803.13
2023-11-07T01:47:02.213Z,98799.78
2023-11-07T01:49:28.936Z,98802.97
2023-11-07T01:52:00.397Z,98799.44
2023-11-07T01:54:30.304Z,98807.94
2023-11-07T01:56:56.970Z,98798.41
2023-11-07T01:59:23.910Z,98801.78
2023-11-07T02:01:51.954Z,98797.56
2023-11-07T02:04:18.675Z,98801.06
2023-11-07T02:06:45.340Z,98801.94
2023-11-07T02:09:12.265Z,98800.47
2023-11-07T02:11:39.551Z,98802.19
2023-11-07T02:14:06.262Z,98805.59
2023-11-07T02:16:33.223Z,98811.59
2023-11-07T02:19:00.183Z,98803.25
2023-11-07T02:21:29.698Z,98805.03
2023-11-07T02:23:56.597Z,98805.03
2023-11-07T02:26:23.190Z,98799.91
2023-11-07T02:28:49.908Z,98798.28
2023-11-07T02:31:16.520Z,98801.59
2023-11-07T02:33:43.749Z,98800.47
2023-11-07T02:36:10.901Z,98795.31
2023-11-07T02:38:37.513Z,98796.09
2023-11-07T02:41:05.956Z,98793.47
2023-11-07T02:43:32.562Z,98799.44
2023-11-07T02:45:59.747Z,98803.13
2023-11-07T02:48:26.470Z,98795.44
2023-11-07T02:50:53.752Z,98791.28
2023-11-07T02:53:20.369Z,98787.91
2023-11-07T02:55:47.526Z,98785.22
2023-11-07T02:58:16.152Z,98788.56
2023-11-07T03:00:43.534Z,98789.41
2023-11-07T03:03:11.140Z,98787.78
2023-11-07T03:05:38.075Z,98793.53
2023-11-07T03:08:05.488Z,98784.97
2023-11-07T03:10:32.961Z,98784.84
2023-11-07T03:13:01.568Z,98777.09
2023-11-07T03:15:30.114Z,98778.69
2023-11-07T03:17:56.812Z,98780.50
2023-11-07T03:20:23.365Z,98778.84
2023-11-07T03:22:50.120Z,98772.84
2023-11-07T03:25:17.956Z,98781.25
2023-11-07T03:27:47.493Z,98775.34
2023-11-07T03:30:16.121Z,98778.78
2023-11-07T03:32:51.974Z,98775.50
2023-11-07T03:35:19.123Z,98777.09
2023-11-07T03:37:45.616Z,98773.88
2023-11-07T03:40:13.489Z,98778.13
2023-11-07T03:42:39.985Z,98772.19
2023-11-07T03:45:06.961Z,98774.19
2023-11-07T03:47:35.041Z,98786.09
2023-11-07T03:50:01.761Z,98780.25
2023-11-07T03:52:28.280Z,98782.75
2023-11-07T03:54:54.797Z,98785.38
2023-11-07T03:57:24.033Z,98782.81
2023-11-07T03:59:52.010Z,98789.69
2023-11-07T04:02:20.367Z,98793.97
2023-11-07T04:04:47.798Z,98786.47
2023-11-07T04:07:14.369Z,98789.84
2023-11-07T04:09:40.975Z,98794.84
2023-11-07T04:12:07.887Z,98801.66
2023-11-07T04:14:34.590Z,98799.28
2023-11-07T04:17:01.324Z,98803.56
2023-11-07T04:19:27.902Z,98806.94
2023-11-07T04:21:54.415Z,98800.06
2023-11-07T04:24:23.001Z,98805.31
2023-11-07T04:26:51.071Z,98799.41
2023-11-07T04:29:18.618Z,98798.59
2023-11-07T04:31:45.077Z,98800.22
2023-11-07T04:34:12.325Z,98802.75
2023-11-07T04:36:44.094Z,98803.69
2023-11-07T04:39:12.364Z,98795.31
2023-11-07T04:41:39.293Z,98794.34
2023-11-07T04:44:06.766Z,98793.31
2023-11-07T04:46:33.499Z,98796.72
2023-11-07T04:49:01.590Z,98788.53
2023-11-07T04:51:29.675Z,98791.88
2023-11-07T04:53:57.420Z,98791.88
2023-11-07T04:56:24.436Z,98791.94
2023-11-07T04:58:57.304Z,98794.63
2023-11-07T05:01:25.636Z,98794.72
2023-11-07T05:03:52.263Z,98783.66
2023-11-07T05:06:20.518Z,98789.00
2023-11-07T05:08:47.414Z,98799.09
2023-11-07T05:11:14.028Z,98805.09
2023-11-07T05:13:40.625Z,98797.31
2023-11-07T05:16:07.598Z,98797.31
2023-11-07T05:18:34.445Z,98804.94
2023-11-07T05:21:01.252Z,98802.91
2023-11-07T05:23:27.833Z,98807.22
2023-11-07T05:25:54.415Z,98808.22
2023-11-07T05:28:21.024Z,98807.41
2023-11-07T05:30:47.665Z,98804.72
2023-11-07T05:33:14.599Z,98800.28
2023-11-07T05:35:41.230Z,98807.22
2023-11-07T05:38:07.922Z,98800.34
2023-11-07T05:40:34.636Z,98808.81
2023-11-07T05:43:01.553Z,98804.69
2023-11-07T05:45:28.110Z,98803.09
2023-11-07T05:47:56.354Z,98806.69
2023-11-07T05:50:26.835Z,98806.53
2023-11-07T05:52:54.090Z,98799.63
2023-11-07T05:55:20.945Z,98799.81
2023-11-07T05:57:47.848Z,98809.19
2023-11-07T06:00:15.099Z,98799.81
2023-11-07T06:02:41.988Z,98798.94
2023-11-07T06:05:09.007Z,98794.72
2023-11-07T06:07:35.902Z,98802.44
2023-11-07T06:10:02.641Z,98802.44
2023-11-07T06:12:34.597Z,98802.59
2023-11-07T06:15:06.618Z,98806.13
2023-11-07T06:17:36.456Z,98811.22
2023-11-07T06:20:03.181Z,98813.56
2023-11-07T06:22:29.767Z,98812.81
2023-11-07T06:24:56.314Z,98817.78
2023-11-07T06:27:24.039Z,98813.56
2023-11-07T06:29:50.929Z,98818.66
2023-11-07T06:32:18.730Z,98818.53
2023-11-07T06:34:45.636Z,98822.16
2023-11-07T06:37:13.627Z,98829.13
2023-11-07T06:39:40.464Z,98836.97
2023-11-07T06:42:08.142Z,98832.91
2023-11-07T06:44:38.375Z,98839.56
2023-11-07T06:47:05.258Z,98839.72
2023-11-07T06:49:32.424Z,98839.44
2023-11-07T06:51:59.576Z,98835.81
2023-11-07T06:54:26.531Z,98842.00
2023-11-07T06:56:56.439Z,98845.66
2023-11-07T06:59:30.331Z,98847.34
2023-11-07T07:01:56.967Z,98851.72
2023-11-07T07:04:23.915Z,98859.63
2023-11-07T07:06:51.056Z,98865.03
2023-11-07T07:09:19.693Z,98859.91
2023-11-07T07:11:48.561Z,98864.16
2023-11-07T07:14:15.534Z,98862.41
2023-11-07T07:16:42.149Z,98864.16
2023-11-07T07:19:09.683Z,98873.47
2023-11-07T07:21:36.649Z,98880.53
2023-11-07T07:24:16.968Z,98875.66
2023-11-07T07:26:47.488Z,98875.50
2023-11-07T07:29:17.206Z,98879.66
2023-11-07T07:31:48.087Z,98877.25
2023-11-07T07:34:15.467Z,98877.88
2023-11-07T07:36:55.109Z,98887.19
2023-11-07T07:39:34.300Z,98885.81
2023-11-07T07:42:13.461Z,98884.91
2023-11-07T07:44:46.155Z,98884.25
2023-11-07T07:47:17.556Z,98885.06
2023-11-07T07:49:48.695Z,98897.53
2023-11-07T07:52:17.282Z,98893.84
2023-11-07T07:55:01.239Z,98897.34
2023-11-07T07:57:38.336Z,98894.00
2023-11-07T08:00:13.599Z,98900.75
2023-11-07T08:02:42.271Z,98896.94
2023-11-07T08:05:09.818Z,98906.38
2023-11-07T08:07:38.040Z,98903.06
2023-11-07T08:10:11.476Z,98901.59
2023-11-07T08:12:38.729Z,98902.56
2023-11-07T08:15:09.139Z,98896.91
2023-11-07T08:17:40.480Z,98906.66
2023-11-07T08:20:15.874Z,98901.88
2023-11-07T08:22:44.629Z,98908.84
2023-11-07T08:25:12.694Z,98903.47
2023-11-07T08:27:46.145Z,98909.91
2023-11-07T08:30:15.009Z,98907.84
2023-11-07T08:32:47.710Z,98913.81
2023-11-07T08:35:16.750Z,98924.50
2023-11-07T08:37:47.445Z,98926.91
2023-11-07T08:40:17.862Z,98928.66
2023-11-07T08:42:45.137Z,98919.34
2023-11-07T08:45:17.344Z,98931.28
2023-11-07T08:47:45.677Z,98931.56
2023-11-07T08:50:24.279Z,98936.25
2023-11-07T08:52:57.162Z,98943.41
2023-11-07T08:55:27.418Z,98946.63
2023-11-07T08:57:58.221Z,98948.97
2023-11-07T09:00:31.095Z,98957.09
2023-11-07T09:03:06.724Z,98961.34
2023-11-07T09:05:34.203Z,98954.84
2023-11-07T09:08:04.250Z,98965.84
2023-11-07T09:10:31.667Z,98966.34
2023-11-07T09:13:05.023Z,98968.75
2023-11-07T09:15:32.270Z,98970.34
2023-11-07T09:18:06.729Z,98973.56
2023-11-07T09:20:39.443Z,98976.88
2023-11-07T09:23:06.201Z,98971.31
2023-11-07T09:25:36.559Z,98983.41
2023-11-07T09:28:05.079Z,98974.03
2023-11-07T09:30:31.703Z,98979.00
2023-11-07T09:32:59.887Z,98982.78
2023-11-07T09:35:29.318Z,98981.72
2023-11-07T09:37:56.589Z,98982.78
2023-11-07T09:40:26.635Z,98986.59
2023-11-07T09:42:57.600Z,98990.22
2023-11-07T09:45:25.732Z,98994.94
2023-11-07T09:47:57.667Z,98991.84
2023-11-07T09:50:25.861Z,98994.47
2023-11-07T09:52:59.333Z,99003.38
2023-11-07T09:55:30.096Z,98995.16
2023-11-07T09:58:09.655Z,98987.06
2023-11-07T10:00:47.023Z,98991.78
2023-11-07T10:03:18.422Z,98987.06
2023-11-07T10:05:48.977Z,98985.47
2023-11-07T10:08:17.680Z,98983.50
2023-11-07T10:10:48.365Z,98994.47
2023-11-07T10:13:21.458Z,98994.78
2023-11-07T10:15:50.543Z,98990.44
2023-11-07T10:18:22.160Z,98984.72
2023-11-07T10:20:56.657Z,98981.66
2023-11-07T10:23:27.243Z,98989.38
2023-11-07T10:25:55.217Z,98990.50
2023-11-07T10:28:25.253Z,98993.50
2023-11-07T10:30:53.093Z,98997.19
2023-11-07T10:33:31.570Z,98993.66
2023-11-07T10:36:01.890Z,98988.78
2023-11-07T10:38:32.970Z,98989.53
2023-11-07T10:41:02.886Z,98985.53
2023-11-07T10:43:40.609Z,98994.13
2023-11-07T10:46:09.603Z,98993.03
2023-11-07T10:48:50.176Z,98990.41
2023-11-07T10:51:17.495Z,98985.97
2023-11-07T10:53:47.626Z,98990.66
2023-11-07T10:56:22.759Z,98984.19
2023-11-07T10:59:04.733Z,98986.09
2023-11-07T11:01:36.004Z,98982.84
2023-11-07T11:04:04.196Z,98983.28
2023-11-07T11:06:33.553Z,98978.19
2023-11-07T11:09:05.037Z,98979.50
2023-11-07T11:11:33.135Z,98983.72
2023-11-07T11:14:00.666Z,98977.97
2023-11-07T11:16:28.232Z,98992.59
2023-11-07T11:19:29.745Z,98991.88
2023-11-07T11:22:43.444Z,98990.00
2023-11-07T11:25:38.226Z,98990.13
2023-11-07T11:28:08.223Z,98995.06
2023-11-07T11:30:41.940Z,98996.38
2023-11-07T11:33:13.314Z,98994.91
2023-11-07T11:35:46.361Z,98991.47
2023-11-07T11:38:25.008Z,98998.19
2023-11-07T11:41:04.256Z,99001.19
2023-11-07T11:43:36.958Z,98999.31
2023-11-07T11:46:18.735Z,99000.19
2023-11-07T11:48:53.485Z,98994.63
2023-11-07T11:51:40.682Z,98987.75
2023-11-07T11:54:08.658Z,98991.13
2023-11-07T11:56:58.284Z,98992.63
2023-11-07T11:59:48.360Z,98991.19
2023-11-07T12:02:43.314Z,98985.09
2023-11-07T12:05:21.989Z,98989.00
2023-11-07T12:07:53.132Z,98980.16
2023-11-07T12:10:22.594Z,98980.03
2023-11-07T12:12:59.741Z,98973.13
2023-11-07T12:15:28.565Z,98977.81
2023-11-07T12:17:55.572Z,98990.78
2023-11-07T12:20:25.205Z,98984.47
2023-11-07T12:22:59.429Z,98987.34
2023-11-07T12:25:27.463Z,98985.09
2023-11-07T12:27:58.614Z,98984.31
2023-11-07T12:30:26.393Z,98983.09
2023-11-07T12:33:11.782Z,98981.22
2023-11-07T12:35:39.979Z,98992.50
2023-11-07T12:38:09.838Z,98987.47
2023-11-07T12:40:38.441Z,98984.22
2023-11-07T12:43:11.847Z,98983.72
2023-11-07T12:45:40.350Z,98976.19
2023-11-07T12:48:11.164Z,98977.19
2023-11-07T12:50:49.051Z,98976.34
2023-11-07T12:53:18.891Z,98975.78
2023-11-07T12:55:53.026Z,98973.81
2023-11-07T12:58:30.957Z,98978.28
2023-11-07T13:01:05.348Z,98970.13
2023-11-07T13:03:35.605Z,98969.94
2023-11-07T13:06:13.317Z,98979.28
2023-11-07T13:08:47.679Z,98977.53
2023-11-07T13:11:18.999Z,98981.09
2023-11-07T13:13:48.080Z,98982.34
2023-11-07T13:16:16.259Z,98979.75
2023-11-07T13:18:53.770Z,98979.91
2023-11-07T13:21:21.807Z,98974.19
2023-11-07T13:23:48.951Z,98983.41
2023-11-07T13:26:16.235Z,98993.88
2023-11-07T13:28:43.965Z,98985.97
2023-11-07T13:31:14.890Z,98995.03
2023-11-07T13:33:43.803Z,98987.66
2023-11-07T13:36:17.484Z,98988.63
2023-11-07T13:38:48.724Z,98989.00
2023-11-07T13:41:17.163Z,98992.50
2023-11-07T13:43:44.364Z,98996.91
2023-11-07T13:46:11.674Z,98995.25
2023-11-07T13:48:41.033Z,99001.28
2023-11-07T13:51:09.073Z,99000.03
2023-11-07T13:53:38.851Z,99008.28
2023-11-07T13:56:06.634Z,99010.78
2023-11-07T13:58:34.121Z,99024.59
2023-11-07T14:01:00.989Z,99018.25
2023-11-07T14:03:30.686Z,99018.47
2023-11-07T14:05:57.606Z,99020.41
2023-11-07T14:08:25.205Z,99014.75
2023-11-07T14:10:52.173Z,99033.31
2023-11-07T14:13:21.157Z,99018.91
2023-11-07T14:15:51.315Z,99018.25
2023-11-07T14:18:25.784Z,99034.81
2023-11-07T14:20:59.990Z,99030.84
2023-11-07T14:23:31.843Z,99036.69
2023-11-07T14:25:59.871Z,99038.78
2023-11-07T14:28:33.515Z,99039.53
2023-11-07T14:31:04.633Z,99038.94
2023-11-07T14:33:32.826Z,99040.72
2023-11-07T14:36:00.354Z,99040.03
2023-11-07T14:38:30.124Z,99035.28
2023-11-07T14:41:08.382Z,99028.13
2023-11-07T14:43:36.354Z,99038.06
2023-11-07T14:46:04.875Z,99038.00
2023-11-07T14:48:38.509Z,99041.25
2023-11-07T14:51:06.096Z,99038.59
2023-11-07T14:53:32.977Z,99042.19
2023-11-07T14:56:02.651Z,99049.63
2023-11-07T14:58:29.557Z,99048.69
2023-11-07T15:00:58.057Z,99050.50
2023-11-07T15:03:25.102Z,99053.81
2023-11-07T15:05:53.436Z,99043.13
2023-11-07T15:08:20.856Z,99056.44
2023-11-07T15:10:57.301Z,99058.59
2023-11-07T15:13:26.888Z,99060.25
2023-11-07T15:15:54.318Z,99066.81
2023-11-07T15:18:24.920Z,99060.94
2023-11-07T15:20:52.225Z,99068.91
2023-11-07T15:23:18.845Z,99068.84
2023-11-07T15:25:49.589Z,99066.09
2023-11-07T15:28:17.859Z,99066.94
2023-11-07T15:30:53.174Z,99069.19
2023-11-07T15:33:19.958Z,99072.25
2023-11-07T15:35:47.268Z,99069.22
2023-11-07T15:38:15.109Z,99071.13
2023-11-07T15:40:42.730Z,99072.28
2023-11-07T15:43:10.185Z,99082.53
2023-11-07T15:45:37.343Z,99071.41
2023-11-07T15:48:11.927Z,99073.72
2023-11-07T15:50:40.811Z,99081.91
2023-11-07T15:53:10.051Z,99080.75
2023-11-07T15:55:39.381Z,99084.69
2023-11-07T15:58:06.373Z,99092.38
2023-11-07T16:00:36.171Z,99095.50
2023-11-07T16:03:04.954Z,99102.47
2023-11-07T16:05:34.547Z,99105.41
2023-11-07T16:08:01.307Z,99106.88
2023-11-07T16:10:31.028Z,99096.78
2023-11-07T16:12:57.955Z,99106.56
2023-11-07T16:15:24.721Z,99106.00
2023-11-07T16:17:52.676Z,99109.19
2023-11-07T16:20:23.230Z,99110.66
2023-11-07T16:22:51.299Z,99118.41
2023-11-07T16:25:18.581Z,99122.34
2023-11-07T16:27:47.847Z,99123.06
2023-11-07T16:30:16.857Z,99121.28
2023-11-07T16:32:47.405Z,99126.84
2023-11-07T16:35:15.387Z,99122.41
2023-11-07T16:37:45.689Z,99119.63
2023-11-07T16:40:13.577Z,99130.19
2023-11-07T16:42:42.179Z,99127.63
2023-11-07T16:45:12.704Z,99131.13
2023-11-07T16:47:43.172Z,99126.22
2023-11-07T16:50:20.077Z,99127.69
2023-11-07T16:52:54.724Z,99125.69
2023-11-07T16:55:21.928Z,99137.44
2023-11-07T16:57:51.948Z,99141.47
2023-11-07T17:00:19.957Z,99130.09
2023-11-07T17:02:47.106Z,99135.03
2023-11-07T17:05:14.069Z,99134.78
2023-11-07T17:07:40.721Z,99142.03
2023-11-07T17:10:12.186Z,99136.13
2023-11-07T17:12:39.751Z,99138.53
2023-11-07T17:15:15.405Z,99137.63
2023-11-07T17:17:48.388Z,99140.31
2023-11-07T17:20:17.129Z,99156.78
2023-11-07T17:22:44.423Z,99153.00
2023-11-07T17:25:11.186Z,99153.97
2023-11-07T17:27:38.821Z,99153.19
2023-11-07T17:30:19.692Z,99158.94
2023-11-07T17:32:47.486Z,99162.09
2023-11-07T17:35:14.665Z,99155.22
2023-11-07T17:37:42.152Z,99154.25
2023-11-07T17:40:25.431Z,99167.50
2023-11-07T17:42:53.961Z,99162.63
2023-11-07T17:45:25.093Z,99177.44
2023-11-07T17:47:58.360Z,99172.06
2023-11-07T17:50:26.599Z,99177.28
2023-11-07T17:52:53.724Z,99180.53
2023-11-07T17:55:22.110Z,99180.72
2023-11-07T17:58:00.532Z,99185.47
2023-11-07T18:00:35.640Z,99179.38
2023-11-07T18:03:04.704Z,99184.41
2023-11-07T18:05:31.825Z,99183.19
2023-11-07T18:08:00.392Z,99181.69
2023-11-07T18:10:36.569Z,99185.28
2023-11-07T18:14:14.802Z,99179.38
2023-11-07T18:16:00.995Z,99188.47
2023-11-07T18:18:57.160Z,99196.75
2023-11-07T18:21:26.367Z,99191.03
2023-11-07T18:24:07.838Z,99202.38
2023-11-07T18:26:39.800Z,99190.38
2023-11-07T18:29:06.479Z,99189.00
2023-11-07T18:31:33.315Z,99196.81
2023-11-07T18:34:09.045Z,99185.81
2023-11-07T18:37:00.327Z,99189.50
2023-11-07T18:39:32.739Z,99189.50
2023-11-07T18:42:00.406Z,99193.94
2023-11-07T18:44:37.302Z,99200.88
2023-11-07T18:47:06.156Z,99201.84
2023-11-07T18:49:44.735Z,99196.38
2023-11-07T18:52:25.771Z,99195.25
2023-11-07T18:54:52.942Z,99193.94
2023-11-07T18:57:20.885Z,99204.94
2023-11-07T18:59:54.527Z,99205.72
2023-11-07T19:02:45.314Z,99199.81
2023-11-07T19:05:13.558Z,99205.28
2023-11-07T19:07:40.317Z,99201.84
2023-11-07T19:10:10.102Z,99210.31
2023-11-07T19:12:38.588Z,99215.41
2023-11-07T19:15:16.631Z,99220.50
2023-11-07T19:18:04.227Z,99216.91
2023-11-07T19:20:31.769Z,99211.50
2023-11-07T19:23:00.151Z,99219.88
2023-11-07T19:25:29.055Z,99214.53
2023-11-07T19:28:02.645Z,99216.50
2023-11-07T19:30:29.639Z,99213.00
2023-11-07T19:32:57.201Z,99227.94
2023-11-07T19:35:26.688Z,99227.50
2023-11-07T19:37:56.197Z,99230.88
2023-11-07T19:40:26.039Z,99224.72
2023-11-07T19:42:55.100Z,99238.25
2023-11-07T19:45:24.633Z,99230.31
2023-11-07T19:47:55.676Z,99229.63
2023-11-07T19:50:33.080Z,99236.22
2023-11-07T19:53:09.451Z,99235.41
2023-11-07T19:55:39.212Z,99232.09
2023-11-07T19:58:15.673Z,99230.69
2023-11-07T20:01:02.529Z,99228.94
2023-11-07T20:03:43.843Z,99234.63
2023-11-07T20:06:41.439Z,99226.91
2023-11-07T20:09:22.329Z,99235.06
2023-11-07T20:14:59.585Z,99231.91
2023-11-07T20:17:30.862Z,99243.47
2023-11-07T20:20:00.733Z,99240.53
2023-11-07T20:22:27.686Z,99240.81
2023-11-07T20:25:00.094Z,99238.53
2023-11-07T20:27:43.783Z,99236.88
2023-11-07T20:30:12.033Z,99230.88
2023-11-07T20:32:42.715Z,99242.84
2023-11-07T20:35:22.330Z,99244.78
2023-11-07T20:37:54.220Z,99237.72
2023-11-07T20:40:24.906Z,99241.88
2023-11-07T20:42:52.416Z,99241.88
2023-11-07T20:45:22.839Z,99240.91
2023-11-07T20:47:53.191Z,99248.03
2023-11-07T20:50:20.100Z,99249.34
2023-11-07T20:53:06.977Z,99246.88
2023-11-07T20:55:38.320Z,99248.28
2023-11-07T20:58:08.061Z,99252.50
2023-11-07T21:00:36.286Z,99245.25
2023-11-07T21:03:03.453Z,99256.25
2023-11-07T21:05:31.208Z,99250.91
2023-11-07T21:07:58.336Z,99248.94
2023-11-07T21:10:27.564Z,99256.00
2023-11-07T21:12:54.521Z,99253.84
2023-11-07T21:15:22.343Z,99257.38
2023-11-07T21:17:49.037Z,99250.25
2023-11-07T21:20:16.031Z,99252.78
2023-11-07T21:22:42.865Z,99252.59
2023-11-07T21:25:12.263Z,99253.75
2023-11-07T21:27:38.905Z,99258.38
2023-11-07T21:30:09.072Z,99257.13
2023-11-07T21:32:36.242Z,99256.47
2023-11-07T21:35:10.589Z,99253.16
2023-11-07T21:37:45.910Z,99260.22
2023-11-07T21:40:14.367Z,99254.41
2023-11-07T21:42:44.780Z,99249.47
2023-11-07T21:45:11.880Z,99264.31
2023-11-07T21:47:45.205Z,99257.59
2023-11-07T21:50:13.494Z,99258.16
2023-11-07T21:52:40.360Z,99256.59
2023-11-07T21:55:12.090Z,99259.31
2023-11-07T21:57:45.154Z,99260.91
2023-11-07T22:00:22.642Z,99250.19
2023-11-07T22:03:01.912Z,99254.69
2023-11-07T22:05:42.386Z,99261.88
2023-11-07T22:08:22.484Z,99255.19
2023-11-07T22:10:56.233Z,99257.94
2023-11-07T22:13:28.258Z,99260.28
2023-11-07T22:15:54.821Z,99259.94
2023-11-07T22:18:21.726Z,99254.13
2023-11-07T22:20:48.688Z,99257.56
2023-11-07T22:23:17.630Z,99265.03
2023-11-07T22:25:45.331Z,99263.25
2023-11-07T22:28:12.789Z,99254.63
2023-11-07T22:30:39.950Z,99260.53
2023-11-07T22:33:06.793Z,99259.56
2023-11-07T22:35:35.360Z,99259.56
2023-11-07T22:38:05.914Z,99264.56
2023-11-07T22:40:32.922Z,99263.59
2023-11-07T22:43:00.489Z,99268.19
2023-11-07T22:45:31.068Z,99273.59
2023-11-07T22:47:57.997Z,99276.41
2023-11-07T22:50:26.213Z,99274.03
2023-11-07T22:52:57.943Z,99283.38
2023-11-07T22:55:28.654Z,99284.63
2023-11-07T22:57:58.730Z,99287.06
2023-11-07T23:00:39.918Z,99283.72
2023-11-07T23:03:16.911Z,99287.63
2023-11-07T23:05:47.053Z,99288.13
2023-11-07T23:08:14.990Z,99294.41
2023-11-07T23:10:50.905Z,99289.41
2023-11-07T23:13:17.496Z,99286.41
2023-11-07T23:15:51.535Z,99301.91
2023-11-07T23:18:19.962Z,99292.56
2023-11-07T23:20:50.322Z,99298.09
2023-11-07T23:23:25.076Z,99296.16
2023-11-07T23:26:08.054Z,99288.38
2023-11-07T23:28:34.677Z,99298.41
2023-11-07T23:31:01.262Z,99298.41
2023-11-07T23:33:28.010Z,99292.34
2023-11-07T23:35:56.005Z,99296.38
2023-11-07T23:38:23.344Z,99301.66
2023-11-07T23:41:03.619Z,99294.53
2023-11-07T23:43:30.190Z,99297.75
2023-11-07T23:46:11.335Z,99301.78
2023-11-07T23:48:41.293Z,99300.72
2023-11-07T23:51:09.397Z,99304.97
2023-11-07T23:53:46.954Z,99301.44
2023-11-07T23:59:28.573Z,99305.75
